• Join FlightAware (Why Join?)
  • Login
  • US Flag 
12:35PM EDT


 

Airport Tracker/Info


-or-


 

Live Flight TrackerFlight Track Log ✈ SKW6345 ✈ 18-Jun-2013 ✈ KSFO - KBZN

Flight Track Log - Related Links

Times and Time Zones

All times are in EDT time to prevent confusion due to time zone crossing. See the SKW6345 flight status page for this flight to view local times or setup timezone preferences in your user account.

Time Position Orientation Groundspeed Altitude Reporting Facility
EDT Latitude Longitude Course Direction KTS MPH feet Rate Location/Type
11:55AM 37.6333 -122.4167 38° Northeast 160 184 2,200  Level Northern Cal TRACON
11:56AM 37.6500 -122.4833 288° West 214 246 4,700 2,340 Climbing Northern Cal TRACON
11:57AM 37.9055 -122.0278 38° Northeast  Level FlightAware Approximate
11:57AM 37.6833 -122.5500 302° West 255 293 6,900  Level Northern Cal TRACON
11:58AM 38.0095 -121.9239 38° Northeast  Level FlightAware Approximate
11:58AM 37.7667 -122.5500 360° North 297 342 9,200  Level Northern Cal TRACON
11:59AM 38.1134 -121.8199 38° Northeast  Level FlightAware Approximate
11:59AM 37.8333 -122.4833 38° Northeast 320 368 11,400  Level Northern Cal TRACON
12:00PM 38.2154 -121.7179 38° Northeast  Level FlightAware Approximate
12:00PM 37.8833 -122.4000 53° Northeast 334 384 13,100  Level Northern Cal TRACON
12:01PM 37.9531 -122.2936 50° Northeast 349 402 14,700 1,500 Climbing Oakland Center
12:02PM 38.0189 -122.1953 50° Northeast 364 419 16,300 1,320 Climbing Oakland Center
12:03PM 38.0861 -122.0939 50° Northeast 376 433 17,500 960 Climbing Oakland Center
12:04PM 38.1561 -121.9869 50° Northeast 391 450 18,300 960 Climbing Oakland Center
12:05PM 38.2292 -121.8764 50° Northeast 407 468 19,500 1,020 Climbing Oakland Center
12:06PM 38.3019 -121.7661 50° Northeast 408 470 20,400 1,020 Climbing Oakland Center
12:07PM 38.3911 -121.6286 50° Northeast 418 481 21,700 1,080 Climbing Oakland Center
12:08PM 38.4733 -121.5253 45° Northeast 420 483 22,600 900 Climbing Oakland Center
12:09PM 38.5617 -121.4189 43° Northeast 432 497 23,600 900 Climbing Oakland Center
12:10PM 38.6500 -121.3119 43° Northeast 439 505 24,500 900 Climbing Oakland Center
12:11PM 38.7481 -121.1969 42° Northeast 448 516 25,500 840 Climbing Oakland Center
12:12PM 38.8394 -121.0858 43° Northeast 451 519 26,300 780 Climbing Oakland Center
12:13PM 38.9306 -120.9742 44° Northeast 451 519 27,200 780 Climbing Oakland Center
12:14PM 39.0222 -120.8625 43° Northeast 453 521 28,000 720 Climbing Oakland Center
12:15PM 39.1144 -120.7500 43° Northeast 455 524 28,700 720 Climbing Oakland Center
12:16PM 39.2056 -120.6381 44° Northeast 454 522 29,500 780 Climbing Oakland Center
12:17PM 39.2972 -120.5261 43° Northeast 453 521 30,300 780 Climbing Oakland Center
12:18PM 39.3861 -120.4156 44° Northeast 447 514 31,100 600 Climbing Oakland Center
12:19PM 39.4758 -120.3042 44° Northeast 445 512 31,600 540 Climbing Oakland Center
12:20PM 39.5847 -120.1686 44° Northeast 450 518 32,300 540 Climbing Oakland Center
12:21PM 39.6950 -120.0842 30° Northeast 459 528 32,800 300 Climbing Oakland Center
12:22PM 39.8022 -120.0039 30° Northeast 446 513 33,000 60 Climbing Oakland Center
12:23PM 39.9153 -119.9228 29° Northeast 458 527 33,000  Level Oakland Center
12:24PM 40.0317 -119.8375 29° Northeast 474 545 33,000  Level Oakland Center
12:25PM 40.1503 -119.7511 29° Northeast 484 557 33,000  Level Oakland Center
12:26PM 40.2711 -119.6597 30° Northeast 494 568 33,000  Level Oakland Center
12:27PM 40.3914 -119.5719 29° Northeast 494 568 33,000  Level Oakland Center
12:28PM 40.5125 -119.4808 30° Northeast 497 572 33,000  Level Oakland Center
12:30PM 40.6339 -119.3892 30° Northeast 500 575 33,000  Level Oakland Center
12:31PM 40.7550 -119.2994 29° Northeast 498 573 33,000  Level Oakland Center
12:32PM 40.8908 -119.1969 30° Northeast 495 570 33,000  Level Oakland Center
12:33PM 41.0042 -119.1117 30° Northeast 490 564 33,000  Level Oakland Center
12:34PM 41.1364 -119.0108 30° Northeast 490 564 33,000  Level Oakland Center
12:35PM 41.2492 -118.9250 30° Northeast 488 562 33,000  Level Oakland Center
12:36PM 41.3594 -118.8386 30° Northeast 483 556 33,000  Level Oakland Center
12:37PM 41.4900 -118.7397 30° Northeast 482 555 33,000  Level Oakland Center
12:38PM 41.6008 -118.6531 30° Northeast 480 552 33,000  Level Oakland Center
12:39PM 41.7681 -118.5225 30° Northeast 480 552 33,000  Level Salt Lake Center
12:40PM 41.8783 -118.4358 30° Northeast 477 549 33,000  Level Salt Lake Center
12:41PM 42.0081 -118.3347 30° Northeast 480 552 33,000  Level Salt Lake Center
12:42PM 42.1183 -118.2478 30° Northeast 479 551 33,000  Level Salt Lake Center
12:43PM 42.2467 -118.1447 31° Northeast 479 551 33,000  Level Salt Lake Center
12:44PM 42.3489 -118.0242 41° Northeast 477 549 33,000  Level Salt Lake Center
12:45PM 42.4239 -117.8856 54° Northeast 475 547 33,000  Level Salt Lake Center
12:46PM 42.5131 -117.7250 53° Northeast 477 549 33,000  Level Salt Lake Center
12:47PM 42.5897 -117.5875 53° Northeast 478 550 33,000  Level Salt Lake Center
12:48PM 42.6781 -117.4253 53° Northeast 477 549 33,000  Level Salt Lake Center
12:49PM 42.7539 -117.2886 53° Northeast 474 545 33,000  Level Salt Lake Center
12:51PM 42.8406 -117.1272 54° Northeast 473 544 33,000  Level Salt Lake Center
12:52PM 42.9156 -116.9894 53° Northeast 473 544 33,000  Level Salt Lake Center
12:53PM 43.0031 -116.8294 53° Northeast 472 543 33,000  Level Salt Lake Center
12:54PM 43.0781 -116.6911 53° Northeast 473 544 33,000  Level Salt Lake Center
12:55PM 43.1647 -116.5286 54° Northeast 474 545 33,000  Level Salt Lake Center
12:56PM 43.2386 -116.3894 54° Northeast 473 544 33,000  Level Salt Lake Center
12:57PM 43.3128 -116.2508 54° Northeast 472 543 33,000  Level Salt Lake Center
12:58PM 43.3981 -116.0869 54° Northeast 474 545 33,000  Level Salt Lake Center
12:59PM 43.4711 -115.9478 54° Northeast 472 543 33,000  Level Salt Lake Center
01:00PM 43.5569 -115.7842 54° Northeast 473 544 33,000  Level Salt Lake Center
01:01PM 43.6292 -115.6414 55° Northeast 476 548 33,000  Level Salt Lake Center
01:02PM 43.7136 -115.4775 54° Northeast 473 544 33,000  Level Salt Lake Center
01:03PM 43.7864 -115.3367 54° Northeast 472 543 33,000  Level Salt Lake Center
01:04PM 43.8703 -115.1717 55° Northeast 472 543 33,000  Level Salt Lake Center
01:05PM 43.9431 -115.0300 54° Northeast 472 543 33,000  Level Salt Lake Center
01:06PM 44.0269 -114.8647 55° Northeast 471 542 33,000  Level Salt Lake Center
01:07PM 44.0989 -114.7231 55° Northeast 470 541 33,000  Level Salt Lake Center
01:08PM 44.1817 -114.5569 55° Northeast 470 541 33,000  Level Salt Lake Center
01:09PM 44.2531 -114.4142 55° Northeast 469 540 33,000  Level Salt Lake Center
01:10PM 44.3231 -114.2728 55° Northeast 466 536 33,000  Level Salt Lake Center
01:11PM 44.4053 -114.1067 55° Northeast 465 535 33,000  Level Salt Lake Center
01:12PM 44.4728 -113.9628 57° Northeast 464 534 33,000  Level Salt Lake Center
01:13PM 44.5467 -113.8122 55° Northeast 464 534 33,000  Level Salt Lake Center
01:14PM 44.6292 -113.6458 55° Northeast 465 535 33,000  Level Salt Lake Center
01:15PM 44.6975 -113.5031 56° Northeast 462 532 33,000  Level Salt Lake Center
01:16PM 44.7756 -113.3364 57° Northeast 458 527 33,000  Level Salt Lake Center
01:17PM 44.8444 -113.1939 56° Northeast 459 528 33,000  Level Salt Lake Center
01:18PM 44.9231 -113.0286 56° Northeast 454 522 33,000  Level Salt Lake Center
01:19PM 44.9908 -112.8858 56° Northeast 456 525 33,000  Level Salt Lake Center
01:20PM 45.0592 -112.7428 56° Northeast 458 527 33,000 -1,080 Level Salt Lake Center
01:21PM 45.1378 -112.5756 56° Northeast 458 527 30,800 -2,100 Descending Salt Lake Center
01:22PM 45.2017 -112.4364 57° Northeast 444 511 28,700 -2,280 Descending Salt Lake Center
01:23PM 45.2775 -112.2714 57° Northeast 445 512 26,200 -2,280 Descending Salt Lake Center
01:24PM 45.3417 -112.1333 56° Northeast 438 504 24,100 -2,040 Descending Salt Lake Center
01:26PM 45.4069 -111.9908 57° Northeast 430 495 22,100 -2,280 Descending Salt Lake Center
01:27PM 45.4692 -111.8522 57° Northeast 419 482 19,500 -2,400 Descending Salt Lake Center
01:28PM 45.5303 -111.7211 56° Northeast 402 463 17,200 -2,160 Descending Salt Lake Center
01:29PM 45.5864 -111.5956 57° Northeast 382 440 15,100 -2,100 Descending Salt Lake Center
01:30PM 45.6525 -111.4614 55° Northeast 351 404 12,900 -1,080 Descending Salt Lake Center
01:31PM 45.7128 -111.3867 41° Northeast 298 343 12,900 -780 Level Salt Lake Center
01:32PM 45.7753 -111.3572 18° North 253 291 11,300 -1,560 Descending Salt Lake Center